Time;durP1;ratioP1;P1;durP2;ratioP2;P2;SDS_P1;SDS_P2;PMS_P1;PMS_P2;Temp;Humidity;BMP_temperature;BMP_pressure;BME280_temperature;BME280_humidity;BME280_pressure;Samples;Min_cycle;Max_cycle;Signal;HPM_P1;HPM_P2
2023/08/02 00:00:50;;;;;;;4.07;2.97;;;19.70;99.90;;;;;;4987036;28;20557;-84
2023/08/02 00:03:16;;;;;;;2.47;2.17;;;19.70;99.90;;;;;;4974940;28;20598;-83
2023/08/02 00:05:52;;;;;;;4.07;2.77;;;19.70;99.90;;;;;;4975753;28;20499;-83
2023/08/02 00:08:19;;;;;;;3.03;2.30;;;19.70;99.90;;;;;;4973987;28;20475;-83
2023/08/02 00:10:46;;;;;;;7.43;3.10;;;19.60;99.90;;;;;;4974915;28;20543;-83
2023/08/02 00:13:15;;;;;;;3.20;2.70;;;19.60;99.90;;;;;;4974370;28;20478;-83
2023/08/02 00:15:42;;;;;;;5.27;2.73;;;19.60;99.90;;;;;;4975262;28;20566;-84
2023/08/02 00:18:10;;;;;;;3.20;2.40;;;19.60;99.90;;;;;;4975473;28;20490;-84
2023/08/02 00:20:38;;;;;;;3.10;2.43;;;19.60;99.90;;;;;;4975368;28;20823;-83
2023/08/02 00:23:06;;;;;;;3.73;2.90;;;19.50;99.90;;;;;;4976184;28;20579;-84
2023/08/02 00:25:34;;;;;;;3.30;3.00;;;19.50;99.90;;;;;;4974961;28;20550;-83
2023/08/02 00:28:01;;;;;;;3.83;3.20;;;19.50;99.90;;;;;;4975483;28;20463;-84
2023/08/02 00:30:31;;;;;;;7.20;4.20;;;19.50;99.90;;;;;;4974597;28;20467;-83
2023/08/02 00:32:58;;;;;;;5.13;4.03;;;19.50;99.90;;;;;;4975360;28;20984;-83
2023/08/02 00:35:25;;;;;;;4.50;3.60;;;19.50;99.90;;;;;;4974170;28;20502;-84
2023/08/02 00:37:54;;;;;;;4.43;4.03;;;19.50;99.90;;;;;;4974737;28;20470;-85
2023/08/02 00:40:26;;;;;;;5.00;4.50;;;19.50;99.90;;;;;;4974424;28;20742;-84
2023/08/02 00:42:53;;;;;;;3.77;3.37;;;19.50;99.90;;;;;;4974983;28;20475;-84
2023/08/02 00:45:20;;;;;;;3.77;3.43;;;19.50;99.90;;;;;;4975307;28;20481;-83
2023/08/02 00:47:47;;;;;;;3.93;3.03;;;19.50;99.90;;;;;;4974427;28;20546;-84
2023/08/02 00:50:14;;;;;;;6.30;4.37;;;19.50;99.90;;;;;;4975137;28;20498;-84
2023/08/02 00:52:41;;;;;;;4.97;4.23;;;19.50;99.90;;;;;;4963047;28;20509;-84
2023/08/02 00:55:08;;;;;;;3.83;3.43;;;19.50;99.90;;;;;;4974372;28;20507;-84
2023/08/02 00:57:37;;;;;;;3.53;2.27;;;19.50;99.90;;;;;;4974108;28;20475;-84
2023/08/02 01:00:05;;;;;;;4.50;3.00;;;19.40;99.90;;;;;;4964116;28;20506;-83
2023/08/02 01:02:32;;;;;;;3.93;2.43;;;19.40;99.90;;;;;;4960851;28;20488;-83
2023/08/02 01:04:59;;;;;;;4.60;3.10;;;19.40;99.90;;;;;;4960847;28;20564;-83
2023/08/02 01:07:34;;;;;;;2.07;1.97;;;19.40;99.90;;;;;;4956191;28;20534;-83
2023/08/02 01:10:09;;;;;;;2.87;2.13;;;19.40;99.90;;;;;;4955442;28;20550;-83
2023/08/02 01:12:43;;;;;;;3.23;2.37;;;19.30;99.90;;;;;;4957408;28;20471;-83
2023/08/02 01:15:13;;;;;;;5.50;3.80;;;19.30;99.90;;;;;;4959517;28;20997;-83
2023/08/02 01:17:43;;;;;;;8.63;5.10;;;19.20;99.90;;;;;;4963825;28;20478;-82
2023/08/02 01:20:12;;;;;;;5.40;4.03;;;19.30;99.90;;;;;;4974476;28;20477;-83
2023/08/02 01:22:45;;;;;;;9.63;2.77;;;19.30;99.90;;;;;;4976231;28;20534;-83
2023/08/02 01:25:12;;;;;;;3.43;2.93;;;19.20;99.90;;;;;;4974599;28;20483;-82
2023/08/02 01:27:44;;;;;;;4.30;2.73;;;19.30;99.90;;;;;;4962039;28;20499;-83
2023/08/02 01:30:14;;;;;;;3.70;2.80;;;19.30;99.90;;;;;;4955362;28;20499;-82
2023/08/02 01:32:42;;;;;;;5.20;2.50;;;19.30;99.90;;;;;;4955882;28;20468;-83
2023/08/02 01:35:11;;;;;;;3.60;2.10;;;19.30;99.90;;;;;;4955650;28;20551;-84
2023/08/02 01:37:39;;;;;;;3.50;3.00;;;19.40;99.90;;;;;;4974509;28;20963;-83
2023/08/02 01:40:07;;;;;;;4.93;3.37;;;19.30;99.90;;;;;;4973774;28;20502;-83
2023/08/02 01:42:46;;;;;;;3.63;2.17;;;19.40;99.90;;;;;;4974866;28;20490;-83
2023/08/02 01:45:13;;;;;;;2.80;2.37;;;19.30;99.90;;;;;;4974109;28;20554;-83
2023/08/02 01:47:41;;;;;;;6.90;3.93;;;19.40;99.90;;;;;;4974699;28;20471;-82
2023/08/02 01:50:08;;;;;;;5.03;4.33;;;19.40;99.90;;;;;;4973871;28;20474;-82
2023/08/02 01:52:37;;;;;;;5.40;2.90;;;19.40;99.90;;;;;;4974808;28;20471;-83
2023/08/02 01:55:04;;;;;;;3.47;2.93;;;19.40;99.90;;;;;;4972208;28;20481;-83
2023/08/02 01:57:31;;;;;;;34.60;26.10;;;19.40;99.90;;;;;;4974682;28;20503;-83
2023/08/02 02:00:01;;;;;;;4.60;2.90;;;19.40;99.90;;;;;;4973769;28;20591;-83
2023/08/02 02:02:30;;;;;;;3.30;2.20;;;19.40;99.90;;;;;;4975018;28;20471;-82
2023/08/02 02:04:57;;;;;;;3.93;2.20;;;19.40;99.90;;;;;;4973863;28;20479;-83
2023/08/02 02:07:25;;;;;;;3.23;2.50;;;19.40;99.90;;;;;;4974313;28;20538;-82
2023/08/02 02:09:53;;;;;;;4.40;3.43;;;19.40;99.90;;;;;;4974610;28;20479;-83
2023/08/02 02:12:20;;;;;;;4.47;2.70;;;19.40;99.90;;;;;;4973744;28;20463;-82
2023/08/02 02:14:50;;;;;;;2.80;2.03;;;19.40;99.90;;;;;;4975538;28;20877;-82
2023/08/02 02:17:17;;;;;;;2.80;2.07;;;19.40;99.90;;;;;;4975648;28;20471;-83
2023/08/02 02:19:46;;;;;;;2.97;2.77;;;19.40;99.90;;;;;;4978015;28;20525;-83
2023/08/02 02:22:13;;;;;;;3.77;2.70;;;19.40;99.90;;;;;;4977424;28;20481;-84
2023/08/02 02:24:40;;;;;;;2.47;2.27;;;19.40;99.90;;;;;;4977878;28;20463;-83
2023/08/02 02:27:08;;;;;;;5.77;2.50;;;19.40;99.90;;;;;;4966965;28;20870;-83
2023/08/02 02:29:35;;;;;;;4.77;2.90;;;19.40;99.90;;;;;;4958451;28;20520;-83
2023/08/02 02:32:02;;;;;;;2.57;2.30;;;19.40;99.90;;;;;;4957542;28;20487;-83
2023/08/02 02:34:29;;;;;;;3.63;2.20;;;19.40;99.90;;;;;;4957938;28;20512;-83
2023/08/02 02:36:56;;;;;;;2.83;2.20;;;19.40;99.90;;;;;;4958292;28;20551;-83
2023/08/02 02:39:26;;;;;;;3.47;3.17;;;19.40;99.90;;;;;;4957353;28;20499;-83
2023/08/02 02:41:54;;;;;;;4.00;2.63;;;19.40;99.90;;;;;;4957973;28;20482;-83
2023/08/02 02:44:22;;;;;;;2.77;1.90;;;19.40;99.90;;;;;;4976824;28;20490;-83
2023/08/02 02:46:49;;;;;;;2.57;2.03;;;19.40;99.90;;;;;;4977442;28;20471;-83
2023/08/02 02:49:16;;;;;;;2.93;2.73;;;19.40;99.90;;;;;;4976883;28;20503;-82
2023/08/02 02:51:43;;;;;;;5.50;2.80;;;19.40;99.90;;;;;;4977209;28;20565;-83
2023/08/02 02:54:10;;;;;;;3.60;2.93;;;19.40;99.90;;;;;;4977261;28;20542;-82
2023/08/02 02:56:37;;;;;;;2.43;2.00;;;19.40;99.90;;;;;;4977251;28;20934;-83
2023/08/02 02:59:04;;;;;;;3.60;2.90;;;19.40;99.90;;;;;;4976699;28;21049;-83
2023/08/02 03:01:32;;;;;;;3.60;2.37;;;19.30;99.90;;;;;;4977782;28;20557;-83
2023/08/02 03:03:59;;;;;;;3.53;2.00;;;19.20;99.90;;;;;;4978982;28;20498;-83
2023/08/02 03:06:26;;;;;;;6.63;2.50;;;19.20;99.90;;;;;;4977651;28;20839;-81
2023/08/02 03:08:53;;;;;;;2.43;2.23;;;19.20;99.90;;;;;;4977719;28;20882;-83
2023/08/02 03:11:20;;;;;;;5.40;3.30;;;19.20;99.90;;;;;;4966476;28;20487;-83
2023/08/02 03:13:47;;;;;;;3.57;3.00;;;19.20;99.90;;;;;;4957754;28;20518;-83
2023/08/02 03:16:14;;;;;;;3.40;2.20;;;19.20;99.90;;;;;;4955965;28;20974;-82
2023/08/02 03:18:42;;;;;;;115.27;87.80;;;19.20;99.90;;;;;;4956639;28;20559;-83
2023/08/02 03:21:10;;;;;;;23.97;17.70;;;19.20;99.90;;;;;;4945845;28;20550;-83
2023/08/02 03:23:37;;;;;;;11.03;9.47;;;19.30;99.90;;;;;;4957163;28;20471;-83
2023/08/02 03:26:05;;;;;;;5.73;4.53;;;19.40;99.90;;;;;;4955834;28;20480;-82
2023/08/02 03:28:34;;;;;;;4.80;3.00;;;19.40;99.90;;;;;;4956879;28;20821;-84
2023/08/02 03:31:01;;;;;;;3.10;2.90;;;19.40;99.90;;;;;;4956640;29;20547;-83
2023/08/02 03:33:28;;;;;;;2.63;2.30;;;19.40;99.90;;;;;;4956538;28;20559;-83
2023/08/02 03:35:57;;;;;;;3.30;2.33;;;19.40;99.90;;;;;;4956567;28;20512;-84
2023/08/02 03:38:23;;;;;;;3.17;2.87;;;19.30;99.90;;;;;;4956857;29;20821;-83
2023/08/02 03:40:50;;;;;;;3.10;2.37;;;19.30;99.90;;;;;;4956645;28;20495;-84
2023/08/02 03:43:18;;;;;;;4.10;2.10;;;19.30;99.90;;;;;;4956996;28;20471;-84
2023/08/02 03:45:45;;;;;;;6.33;2.43;;;19.20;99.90;;;;;;4956852;28;20491;-83
2023/08/02 03:48:12;;;;;;;3.63;2.70;;;19.20;99.90;;;;;;4956320;28;20471;-81
2023/08/02 03:50:39;;;;;;;3.70;2.50;;;19.10;99.90;;;;;;4956923;28;20539;-84
2023/08/02 03:53:07;;;;;;;3.00;2.50;;;19.10;99.90;;;;;;4956042;28;20472;-83
2023/08/02 03:55:35;;;;;;;4.57;3.47;;;19.10;99.90;;;;;;4956476;28;20482;-83
2023/08/02 03:58:02;;;;;;;3.10;2.90;;;19.10;99.90;;;;;;4956163;28;20871;-83
2023/08/02 04:00:29;;;;;;;4.57;3.27;;;19.00;99.90;;;;;;4957025;28;20806;-83
2023/08/02 04:02:57;;;;;;;4.47;3.00;;;19.00;99.90;;;;;;4956034;28;20480;-82
2023/08/02 04:05:24;;;;;;;3.50;2.87;;;18.90;99.90;;;;;;4956256;28;20962;-83
2023/08/02 04:07:51;;;;;;;5.97;3.30;;;18.90;99.90;;;;;;4955840;28;20476;-83
2023/08/02 04:10:19;;;;;;;3.10;2.80;;;18.90;99.90;;;;;;4961016;29;20531;-83
2023/08/02 04:12:46;;;;;;;5.37;3.03;;;18.90;99.90;;;;;;4956682;28;20512;-83
2023/08/02 04:15:13;;;;;;;3.10;2.63;;;18.90;99.90;;;;;;4955422;28;20519;-83
2023/08/02 04:17:40;;;;;;;3.50;3.20;;;18.80;99.90;;;;;;4956794;28;20475;-82
2023/08/02 04:20:09;;;;;;;4.30;3.37;;;18.80;99.90;;;;;;4957506;28;20487;-83
2023/08/02 04:22:36;;;;;;;2.87;2.63;;;18.80;99.90;;;;;;4956416;28;20477;-82
2023/08/02 04:25:04;;;;;;;4.73;3.60;;;18.70;99.90;;;;;;4954028;28;20490;-82
2023/08/02 04:27:32;;;;;;;3.37;2.87;;;18.70;99.90;;;;;;4955889;28;20475;-82
2023/08/02 04:30:00;;;;;;;3.00;2.80;;;18.70;99.90;;;;;;4955697;28;20483;-84
2023/08/02 04:32:27;;;;;;;3.93;3.53;;;18.80;99.90;;;;;;4956329;28;20954;-83
2023/08/02 04:34:54;;;;;;;3.83;3.40;;;18.80;99.90;;;;;;4955123;28;20475;-84
2023/08/02 04:37:21;;;;;;;6.00;3.37;;;18.70;99.90;;;;;;4956731;28;20475;-81
2023/08/02 04:39:50;;;;;;;5.30;3.03;;;18.70;99.90;;;;;;4956123;28;20478;-83
2023/08/02 04:42:18;;;;;;;6.47;3.20;;;18.70;99.90;;;;;;4954738;28;20460;-83
2023/08/02 04:44:46;;;;;;;3.63;3.33;;;18.70;99.90;;;;;;4956110;28;20538;-83
2023/08/02 04:47:13;;;;;;;3.30;3.00;;;18.70;99.90;;;;;;4947807;28;20484;-82
2023/08/02 04:49:41;;;;;;;3.53;3.23;;;18.70;99.90;;;;;;4956314;29;20479;-83
2023/08/02 04:52:08;;;;;;;7.37;3.53;;;18.70;99.90;;;;;;4955240;28;20480;-84
2023/08/02 04:54:35;;;;;;;5.43;3.37;;;18.70;99.90;;;;;;4955632;28;20567;-82
2023/08/02 04:57:02;;;;;;;3.67;3.10;;;18.70;99.90;;;;;;4955317;28;20475;-83
2023/08/02 04:59:31;;;;;;;6.90;3.87;;;18.70;99.90;;;;;;4955707;28;20475;-83
2023/08/02 05:01:59;;;;;;;6.80;4.00;;;18.70;99.90;;;;;;4955721;28;20471;-82
2023/08/02 05:04:35;;;;;;;6.60;3.33;;;18.70;99.90;;;;;;4955873;28;20510;-83
2023/08/02 05:07:03;;;;;;;3.63;3.33;;;18.70;99.90;;;;;;4955845;28;20538;-83
2023/08/02 05:09:30;;;;;;;3.10;2.87;;;18.70;99.90;;;;;;4956537;28;20467;-81
2023/08/02 05:11:57;;;;;;;7.67;3.40;;;18.70;99.90;;;;;;4946315;29;20858;-82
2023/08/02 05:14:24;;;;;;;5.33;3.13;;;18.70;99.90;;;;;;4957151;28;20472;-82
2023/08/02 05:16:51;;;;;;;3.67;3.20;;;18.80;99.90;;;;;;4957161;28;20828;-82
2023/08/02 05:19:20;;;;;;;3.67;2.90;;;18.80;99.90;;;;;;4955780;28;20480;-82
2023/08/02 05:21:47;;;;;;;4.17;3.40;;;18.70;99.90;;;;;;4956278;28;20518;-83
2023/08/02 05:24:15;;;;;;;4.00;3.30;;;18.70;99.90;;;;;;4955126;28;20503;-82
2023/08/02 05:26:42;;;;;;;4.83;3.80;;;18.80;99.90;;;;;;4955997;28;20480;-83
2023/08/02 05:29:08;;;;;;;4.63;3.73;;;18.80;99.90;;;;;;4954919;28;20567;-83
2023/08/02 05:31:35;;;;;;;3.30;3.07;;;18.90;99.90;;;;;;4954601;28;20554;-82
2023/08/02 05:34:03;;;;;;;7.70;4.30;;;18.90;99.90;;;;;;4955040;28;20574;-82
2023/08/02 05:36:31;;;;;;;2.90;2.60;;;18.90;99.90;;;;;;4955296;28;20818;-83
2023/08/02 05:38:58;;;;;;;5.00;3.07;;;18.90;99.90;;;;;;4945821;29;20548;-83
2023/08/02 05:47:24;;;;;;;3.13;2.70;;;19.00;99.90;;;;;;4918619;29;20470;-82
2023/08/02 05:49:51;;;;;;;3.87;3.40;;;19.00;99.90;;;;;;4956414;28;20479;-82
2023/08/02 05:52:40;;;;;;;;;;;;;;;;;;;;;
2023/08/02 05:55:16;;;;;;;5.40;3.37;;;19.00;99.90;;;;;;4927876;28;20494;-82
2023/08/02 05:57:48;;;;;;;3.70;3.07;;;19.10;99.90;;;;;;4958458;28;20471;-82
2023/08/02 06:00:16;;;;;;;4.03;3.73;;;19.10;99.90;;;;;;4958568;28;20547;-83
2023/08/02 06:02:46;;;;;;;7.27;5.07;;;19.20;99.90;;;;;;4959154;28;20482;-83
2023/08/02 06:05:16;;;;;;;5.40;4.67;;;19.20;99.90;;;;;;4957884;28;20480;-83
2023/08/02 06:07:44;;;;;;;10.30;7.00;;;19.30;99.90;;;;;;4958844;28;20472;-83
2023/08/02 06:10:11;;;;;;;4.23;3.37;;;19.30;99.90;;;;;;4958054;28;20808;-82
2023/08/02 06:12:40;;;;;;;5.60;3.40;;;19.40;99.90;;;;;;4958946;28;20467;-85
2023/08/02 06:15:08;;;;;;;8.20;4.10;;;19.50;99.90;;;;;;4957806;28;20570;-82
2023/08/02 06:17:35;;;;;;;5.00;3.70;;;19.60;99.90;;;;;;4957648;29;20559;-82
2023/08/02 06:20:09;;;;;;;5.23;2.57;;;19.60;99.90;;;;;;4957735;28;20806;-83
2023/08/02 06:22:38;;;;;;;7.57;2.63;;;19.60;99.90;;;;;;4958307;28;20976;-83
2023/08/02 06:25:08;;;;;;;5.93;3.00;;;19.70;99.90;;;;;;4947391;28;20570;-85
2023/08/02 06:27:35;;;;;;;4.27;2.87;;;19.70;99.90;;;;;;4958065;28;20526;-83
2023/08/02 06:30:09;;;;;;;4.07;2.90;;;19.70;99.90;;;;;;4958406;28;20496;-82
2023/08/02 06:32:39;;;;;;;3.77;2.90;;;19.80;99.90;;;;;;4957227;28;20554;-83
2023/08/02 06:35:07;;;;;;;3.00;2.80;;;19.90;99.90;;;;;;4958202;28;20476;-84
2023/08/02 06:37:37;;;;;;;7.47;3.33;;;19.90;99.90;;;;;;4957303;28;20467;-83
2023/08/02 06:40:19;;;;;;;4.97;3.43;;;20.00;99.90;;;;;;4957932;28;20507;-84
2023/08/02 06:42:46;;;;;;;7.83;4.30;;;19.90;99.90;;;;;;4957490;28;20960;-83
2023/08/02 06:45:13;;;;;;;3.87;3.40;;;20.00;99.90;;;;;;4958048;28;20499;-82
2023/08/02 06:47:40;;;;;;;4.27;3.77;;;20.00;99.90;;;;;;4956379;29;20467;-83
2023/08/02 06:50:08;;;;;;;4.23;2.50;;;20.10;99.90;;;;;;4957705;28;20510;-82
2023/08/02 06:52:35;;;;;;;3.20;2.83;;;20.10;99.90;;;;;;4947436;28;20558;-83
2023/08/02 06:55:18;;;;;;;3.50;2.90;;;20.10;99.90;;;;;;4956970;28;20543;-83
2023/08/02 06:57:46;;;;;;;5.67;2.93;;;20.30;99.90;;;;;;4956764;28;20486;-83
2023/08/02 07:00:14;;;;;;;4.67;3.17;;;20.40;99.90;;;;;;4949438;28;20496;-83
2023/08/02 07:02:41;;;;;;;3.30;3.00;;;20.50;99.90;;;;;;4956269;29;20476;-83
2023/08/02 07:05:08;;;;;;;5.00;2.60;;;20.70;99.90;;;;;;4957249;28;20535;-82
2023/08/02 07:07:35;;;;;;;3.87;2.97;;;20.70;99.90;;;;;;4957063;28;20478;-82
2023/08/02 07:10:02;;;;;;;9.10;3.10;;;20.70;99.90;;;;;;4957683;28;20641;-83
2023/08/02 07:12:29;;;;;;;3.17;2.87;;;20.80;99.90;;;;;;4956532;28;20872;-83
2023/08/02 07:15:09;;;;;;;6.13;2.87;;;20.90;99.90;;;;;;4957206;28;20472;-83
2023/08/02 07:17:36;;;;;;;3.97;3.03;;;21.00;99.90;;;;;;4956766;28;20535;-84
2023/08/02 07:20:32;;;;;;;2.53;2.33;;;21.10;99.90;;;;;;4945402;28;20496;-83
2023/08/02 07:23:35;;;;;;;3.30;2.47;;;21.30;99.90;;;;;;4941580;28;20539;-83
2023/08/02 07:26:04;;;;;;;2.67;2.20;;;21.20;99.90;;;;;;4956442;28;20563;-83
2023/08/02 07:28:32;;;;;;;4.20;3.20;;;21.40;99.90;;;;;;4956707;28;20464;-82
2023/08/02 07:31:21;;;;;;;5.50;2.70;;;21.40;99.90;;;;;;4957090;28;20542;-84
2023/08/02 07:33:48;;;;;;;5.40;2.80;;;21.60;99.90;;;;;;4956484;28;20524;-84
2023/08/02 07:36:17;;;;;;;3.63;2.37;;;21.70;99.90;;;;;;4957076;28;20500;-83
2023/08/02 07:38:44;;;;;;;4.53;3.13;;;21.80;99.90;;;;;;4947177;29;20471;-85
2023/08/02 07:41:12;;;;;;;2.90;2.50;;;22.00;99.90;;;;;;4955247;29;20504;-84
2023/08/02 07:44:03;;;;;;;4.80;2.33;;;22.10;99.90;;;;;;4956772;28;20482;-83
2023/08/02 07:46:31;;;;;;;4.23;3.00;;;22.20;99.90;;;;;;4951143;28;20472;-84
2023/08/02 07:48:58;;;;;;;5.40;2.63;;;22.30;99.90;;;;;;4956724;29;20547;-84
2023/08/02 07:51:28;;;;;;;3.30;2.60;;;22.30;99.90;;;;;;4956626;28;20813;-84
2023/08/02 07:54:09;;;;;;;3.00;1.97;;;22.40;99.90;;;;;;4921366;29;20469;-83
2023/08/02 07:56:36;;;;;;;2.43;2.23;;;22.50;99.90;;;;;;4955905;28;20476;-84
2023/08/02 07:59:04;;;;;;;2.50;1.97;;;22.60;99.90;;;;;;4956190;28;20472;-83
2023/08/02 08:01:34;;;;;;;2.03;1.90;;;22.70;99.90;;;;;;4946286;29;20958;-83
2023/08/02 08:04:01;;;;;;;4.10;2.27;;;22.80;99.90;;;;;;4966713;28;20937;-83
2023/08/02 08:06:28;;;;;;;4.23;2.60;;;22.80;99.90;;;;;;4975936;28;20824;-83
2023/08/02 08:08:58;;;;;;;4.53;2.57;;;22.80;99.90;;;;;;4964092;28;20570;-83
2023/08/02 08:11:37;;;;;;;2.60;2.20;;;22.80;99.90;;;;;;4970943;28;20555;-82
2023/08/02 08:14:08;;;;;;;5.20;2.80;;;22.90;99.90;;;;;;4974605;28;20543;-82
2023/08/02 08:16:39;;;;;;;2.43;2.23;;;22.90;99.90;;;;;;4974914;28;20990;-82
2023/08/02 08:19:30;;;;;;;2.93;1.80;;;23.00;99.90;;;;;;4960097;28;20859;-82
2023/08/02 08:22:32;;;;;;;2.80;1.90;;;23.10;99.90;;;;;;4969083;28;20922;-82
2023/08/02 08:25:01;;;;;;;2.70;2.07;;;23.30;99.90;;;;;;4914274;29;20541;-82
2023/08/02 08:27:28;;;;;;;2.27;2.00;;;23.30;99.90;;;;;;4906287;29;20546;-84
2023/08/02 08:29:59;;;;;;;3.90;2.67;;;23.30;99.90;;;;;;4953942;28;20562;-82
2023/08/02 08:32:31;;;;;;;5.47;2.00;;;23.40;99.90;;;;;;4975218;28;20513;-83
2023/08/02 08:34:58;;;;;;;2.30;2.10;;;23.50;99.90;;;;;;4979876;23;20467;-83
2023/08/02 08:37:48;;;;;;;4.57;2.07;;;23.40;99.90;;;;;;4974481;28;20479;-83
2023/08/02 08:40:18;;;;;;;4.37;2.33;;;23.40;99.90;;;;;;4974209;28;20461;-83
2023/08/02 08:42:55;;;;;;;5.07;2.70;;;23.40;99.90;;;;;;4974855;28;20477;-84
2023/08/02 08:45:25;;;;;;;3.30;2.10;;;23.40;99.90;;;;;;4963397;28;20471;-83
2023/08/02 08:47:57;;;;;;;3.13;2.17;;;23.40;99.90;;;;;;4973418;28;20486;-84
2023/08/02 08:50:28;;;;;;;1.90;1.63;;;23.50;99.90;;;;;;4975221;28;20498;-83
2023/08/02 08:53:06;;;;;;;2.10;1.87;;;23.60;99.90;;;;;;4974055;28;20498;-82
2023/08/02 08:55:54;;;;;;;3.10;2.00;;;23.70;99.90;;;;;;4974800;28;20481;-84
2023/08/02 08:58:25;;;;;;;2.47;1.77;;;23.80;99.90;;;;;;4974526;28;20481;-83
2023/08/02 09:00:58;;;;;;;2.90;1.70;;;23.90;99.90;;;;;;4961751;28;20455;-83
2023/08/02 09:03:57;;;;;;;5.43;2.43;;;23.90;99.90;;;;;;4951969;28;20535;-83
2023/08/02 09:06:25;;;;;;;2.73;2.20;;;24.00;99.90;;;;;;4974477;28;20534;-82
2023/08/02 09:08:51;;;;;;;3.60;2.03;;;24.00;99.90;;;;;;4966007;28;20482;-82
2023/08/02 09:11:19;;;;;;;2.40;1.67;;;23.90;99.90;;;;;;4974230;28;20483;-84
2023/08/02 09:13:46;;;;;;;3.67;1.90;;;24.00;99.90;;;;;;4964264;28;20506;-83
2023/08/02 09:16:23;;;;;;;3.00;1.80;;;24.10;99.90;;;;;;4974082;28;20968;-83
2023/08/02 09:18:53;;;;;;;2.80;1.53;;;24.10;99.90;;;;;;4974515;28;20554;-83
2023/08/02 09:21:24;;;;;;;3.33;1.87;;;24.00;99.90;;;;;;4973967;28;20470;-83
2023/08/02 09:23:57;;;;;;;3.30;1.47;;;24.00;99.90;;;;;;4973525;28;20490;-84
2023/08/02 09:26:24;;;;;;;2.23;1.63;;;24.00;99.90;;;;;;4974260;28;20494;-84
2023/08/02 09:29:01;;;;;;;1.70;1.60;;;24.00;99.90;;;;;;4974525;28;20477;-83
2023/08/02 09:31:39;;;;;;;3.83;2.00;;;24.00;99.90;;;;;;4948241;28;20471;-83
2023/08/02 09:34:06;;;;;;;1.80;1.70;;;24.00;99.90;;;;;;4977888;28;20501;-82
2023/08/02 09:36:35;;;;;;;2.93;1.97;;;24.00;99.90;;;;;;4993272;28;20916;-84
2023/08/02 09:39:06;;;;;;;1.83;1.53;;;24.10;99.90;;;;;;4994053;28;20531;-83
2023/08/02 09:41:34;;;;;;;1.50;1.40;;;24.10;99.90;;;;;;4993662;28;20487;-82
2023/08/02 09:44:02;;;;;;;3.50;1.97;;;24.20;99.90;;;;;;4994023;28;20572;-84
2023/08/02 09:46:31;;;;;;;2.50;1.83;;;24.20;99.90;;;;;;4992003;28;20473;-84
2023/08/02 09:48:59;;;;;;;2.27;2.03;;;24.20;99.90;;;;;;4993474;28;20956;-83
2023/08/02 09:51:41;;;;;;;2.70;2.00;;;24.20;99.90;;;;;;4993011;28;20521;-83
2023/08/02 09:54:08;;;;;;;3.40;1.87;;;24.00;99.90;;;;;;4993473;28;21022;-83
2023/08/02 09:56:37;;;;;;;1.50;1.40;;;24.10;99.90;;;;;;4993498;28;20465;-83
2023/08/02 09:59:06;;;;;;;2.63;2.03;;;24.10;99.90;;;;;;4994021;28;20560;-84
2023/08/02 10:01:35;;;;;;;7.50;6.80;;;24.20;99.90;;;;;;4992415;28;20462;-85
2023/08/02 10:04:06;;;;;;;5.63;5.10;;;24.20;99.90;;;;;;4993619;28;20478;-84
2023/08/02 10:06:35;;;;;;;3.73;2.70;;;24.30;99.90;;;;;;4992820;28;20765;-84
2023/08/02 10:09:07;;;;;;;2.90;1.93;;;24.30;99.90;;;;;;4993939;28;21006;-85
2023/08/02 10:11:43;;;;;;;4.60;2.07;;;24.30;99.90;;;;;;4993678;28;20464;-84
2023/08/02 10:14:11;;;;;;;3.23;1.67;;;24.30;99.90;;;;;;4993461;28;20482;-84
2023/08/02 10:16:39;;;;;;;3.90;2.37;;;24.30;99.90;;;;;;4982226;28;20469;-83
2023/08/02 10:19:20;;;;;;;5.83;2.70;;;24.30;99.90;;;;;;4992776;28;20477;-84
2023/08/02 10:21:48;;;;;;;3.17;2.87;;;24.20;99.90;;;;;;4992381;28;20466;-83
2023/08/02 10:24:18;;;;;;;2.90;2.50;;;24.20;99.90;;;;;;4993786;28;20474;-83
2023/08/02 10:26:45;;;;;;;1.97;1.57;;;24.10;99.90;;;;;;4992541;28;20466;-83
2023/08/02 10:29:13;;;;;;;2.10;1.90;;;24.10;99.90;;;;;;4985405;28;20474;-85
2023/08/02 10:31:41;;;;;;;3.67;1.77;;;24.10;99.90;;;;;;4993279;28;20883;-83
2023/08/02 10:34:41;;;;;;;5.70;1.60;;;24.10;99.90;;;;;;4988983;28;20558;-84
2023/08/02 10:37:10;;;;;;;6.33;4.80;;;24.10;99.90;;;;;;4977538;28;20494;-82
2023/08/02 10:43:05;;;;;;;4.00;3.60;;;24.10;99.90;;;;;;5091172;28;20776;-82
2023/08/02 10:45:32;;;;;;;5.00;2.20;;;24.20;99.90;;;;;;5090474;28;20484;-83
2023/08/02 10:48:24;;;;;;;1.90;1.60;;;24.20;99.90;;;;;;5079791;28;20474;-82
2023/08/02 10:50:53;;;;;;;2.80;1.73;;;24.20;99.90;;;;;;5091092;28;20469;-83
2023/08/02 10:53:20;;;;;;;3.53;1.77;;;24.20;99.90;;;;;;5090686;28;20454;-83
2023/08/02 10:56:03;;;;;;;1.67;1.20;;;24.20;99.90;;;;;;5090403;28;20527;-82
2023/08/02 11:01:26;;;;;;;2.73;1.60;;;24.30;99.90;;;;;;5094621;27;20564;-83
2023/08/02 11:03:57;;;;;;;1.93;1.83;;;24.20;99.90;;;;;;5090604;28;20477;-83
2023/08/02 11:06:29;;;;;;;2.40;2.20;;;24.30;99.90;;;;;;5096159;28;20468;-83
2023/08/02 11:08:56;;;;;;;2.00;1.70;;;24.30;99.90;;;;;;5090508;28;20803;-83
2023/08/02 11:11:35;;;;;;;1.60;1.50;;;24.30;99.90;;;;;;5089866;28;20473;-83
2023/08/02 11:14:02;;;;;;;1.93;1.60;;;24.30;99.90;;;;;;5090737;28;20803;-83
2023/08/02 11:16:31;;;;;;;1.60;1.50;;;24.20;99.90;;;;;;5089990;28;20465;-83
2023/08/02 11:18:59;;;;;;;2.40;1.50;;;24.20;99.90;;;;;;5090462;28;20960;-83
2023/08/02 11:21:26;;;;;;;2.27;1.80;;;24.20;99.90;;;;;;5090396;28;20492;-83
2023/08/02 11:24:00;;;;;;;1.80;1.70;;;24.10;99.90;;;;;;5090391;28;20466;-83
2023/08/02 11:26:28;;;;;;;2.47;1.70;;;24.10;99.90;;;;;;5090048;28;20537;-83
2023/08/02 11:28:58;;;;;;;4.60;2.43;;;24.10;99.90;;;;;;5089789;28;20497;-84
2023/08/02 11:31:39;;;;;;;4.17;2.00;;;24.10;99.90;;;;;;5088357;28;20470;-84
2023/08/02 11:34:24;;;;;;;2.10;1.90;;;24.00;99.90;;;;;;5088918;28;20477;-83
2023/08/02 11:36:52;;;;;;;2.53;2.33;;;24.00;99.90;;;;;;5090497;28;20853;-83
2023/08/02 11:39:20;;;;;;;2.70;2.13;;;23.90;99.90;;;;;;5089560;28;20481;-84
2023/08/02 11:42:00;;;;;;;2.53;2.40;;;23.90;99.90;;;;;;5093738;28;20515;-83
2023/08/02 11:44:27;;;;;;;3.80;3.50;;;23.80;99.90;;;;;;5089014;28;20469;-83
2023/08/02 11:46:57;;;;;;;6.23;5.43;;;23.80;99.90;;;;;;5087150;28;20851;-83
2023/08/02 11:49:25;;;;;;;6.20;4.20;;;23.80;99.90;;;;;;5098378;28;20545;-83
2023/08/02 11:51:55;;;;;;;3.93;3.27;;;23.80;99.90;;;;;;5089829;28;20465;-83
2023/08/02 11:54:27;;;;;;;3.43;2.73;;;23.80;99.90;;;;;;5088986;28;20476;-83
2023/08/02 11:56:54;;;;;;;3.23;2.93;;;23.80;99.90;;;;;;5089896;28;20465;-83
2023/08/02 11:59:51;;;;;;;2.80;2.07;;;23.90;99.90;;;;;;5089525;28;20874;-83
2023/08/02 12:02:30;;;;;;;4.13;3.17;;;23.90;99.90;;;;;;5089903;28;20850;-82
2023/08/02 12:05:05;;;;;;;2.50;1.90;;;23.90;99.90;;;;;;5099055;28;20512;-82
2023/08/02 12:07:46;;;;;;;2.37;2.10;;;23.90;99.90;;;;;;5093122;28;20464;-82
2023/08/02 12:10:31;;;;;;;3.83;2.77;;;23.90;99.90;;;;;;5094447;28;20827;-83
2023/08/02 12:13:31;;;;;;;2.50;2.30;;;24.00;99.90;;;;;;5082712;28;20466;-83
2023/08/02 12:16:11;;;;;;;2.73;2.53;;;24.10;99.90;;;;;;5052140;28;20638;-83
2023/08/02 12:18:54;;;;;;;6.47;3.60;;;24.10;99.90;;;;;;5077763;28;20485;-82
2023/08/02 12:21:21;;;;;;;2.37;2.17;;;24.10;99.90;;;;;;5090530;28;20485;-82
2023/08/02 12:23:49;;;;;;;2.50;1.97;;;24.20;99.90;;;;;;5076857;28;20528;-82
2023/08/02 12:26:32;;;;;;;3.57;3.27;;;24.20;99.90;;;;;;5076435;28;20569;-81
2023/08/02 12:29:00;;;;;;;2.77;2.40;;;24.20;99.90;;;;;;5077549;28;20510;-82
2023/08/02 12:31:29;;;;;;;4.17;2.70;;;24.20;99.90;;;;;;5075871;28;20493;-81
2023/08/02 12:34:00;;;;;;;6.33;3.10;;;24.20;99.90;;;;;;5089021;28;20471;-83
2023/08/02 12:36:31;;;;;;;3.10;2.80;;;24.20;99.90;;;;;;5076785;28;20474;-81
2023/08/02 12:38:59;;;;;;;2.97;2.17;;;24.20;99.90;;;;;;5076660;28;20477;-83
2023/08/02 12:41:29;;;;;;;4.70;2.27;;;24.20;99.90;;;;;;5075744;28;20478;-82
2023/08/02 12:43:56;;;;;;;4.53;2.70;;;24.20;99.90;;;;;;5076120;28;20483;-82
2023/08/02 12:46:23;;;;;;;6.47;2.57;;;24.20;99.90;;;;;;5076084;28;21020;-82
2023/08/02 12:48:51;;;;;;;2.93;2.53;;;24.20;99.90;;;;;;5066706;28;20471;-83
2023/08/02 12:51:21;;;;;;;2.70;2.50;;;24.20;99.90;;;;;;5076030;28;20998;-82
2023/08/02 12:53:47;;;;;;;4.53;3.07;;;24.20;99.90;;;;;;5075793;28;20468;-82
2023/08/02 12:56:15;;;;;;;2.23;2.03;;;24.10;99.90;;;;;;5075699;28;20786;-83
2023/08/02 12:58:42;;;;;;;2.37;2.23;;;24.10;99.90;;;;;;5075134;28;20454;-83
2023/08/02 13:01:20;;;;;;;4.13;2.63;;;24.00;99.90;;;;;;5072122;28;20477;-83
2023/08/02 13:03:47;;;;;;;2.73;2.20;;;24.00;99.90;;;;;;5082674;28;20541;-83
2023/08/02 13:06:14;;;;;;;2.67;2.27;;;24.00;99.90;;;;;;5075118;28;20471;-83
2023/08/02 13:08:47;;;;;;;3.80;2.60;;;23.90;99.90;;;;;;5074765;28;20470;-84
2023/08/02 13:11:14;;;;;;;3.23;2.93;;;23.90;99.90;;;;;;5075188;28;20819;-83
2023/08/02 13:13:41;;;;;;;2.70;2.50;;;23.80;99.90;;;;;;5068437;28;20458;-83
2023/08/02 13:16:08;;;;;;;3.50;2.90;;;23.80;99.90;;;;;;5075675;28;20469;-83